Time;durP1;ratioP1;P1;durP2;ratioP2;P2;SDS_P1;SDS_P2;PMS_P1;PMS_P2;Temp;Humidity;BMP_temperature;BMP_pressure;BME280_temperature;BME280_humidity;BME280_pressure;Samples;Min_cycle;Max_cycle;Signal;HPM_P1;HPM_P2
2023/04/14 00:00:33;;;;;;;13.75;3.20;;;5.80;99.90;;;;;;5004875;28;20050;-60
2023/04/14 00:03:00;;;;;;;15.57;3.90;;;5.80;99.90;;;;;;5008233;28;20042;-60
2023/04/14 00:05:29;;;;;;;11.68;3.15;;;5.80;99.90;;;;;;5006918;28;20065;-59
2023/04/14 00:07:55;;;;;;;11.32;2.45;;;5.80;99.90;;;;;;5004037;28;20050;-59
2023/04/14 00:10:21;;;;;;;14.60;3.95;;;5.80;99.90;;;;;;5003937;28;20572;-59
2023/04/14 00:12:46;;;;;;;10.13;2.95;;;5.70;99.90;;;;;;5006272;28;20072;-59
2023/04/14 00:15:12;;;;;;;14.93;5.15;;;5.70;99.90;;;;;;5007965;28;20047;-59
2023/04/14 00:17:38;;;;;;;12.70;2.65;;;5.70;99.90;;;;;;5007323;28;20644;-58
2023/04/14 00:20:04;;;;;;;11.00;3.28;;;5.70;99.90;;;;;;5005429;28;20073;-60
2023/04/14 00:22:30;;;;;;;19.20;3.83;;;5.60;99.90;;;;;;5007938;28;20053;-59
2023/04/14 00:24:56;;;;;;;14.88;3.58;;;5.60;99.90;;;;;;5007505;28;20100;-59
2023/04/14 00:27:21;;;;;;;15.23;3.53;;;5.60;99.90;;;;;;4985536;28;20137;-57
2023/04/14 00:29:48;;;;;;;11.75;3.15;;;5.60;99.90;;;;;;5020183;28;20049;-59
2023/04/14 00:32:13;;;;;;;10.73;3.03;;;5.60;99.90;;;;;;5005762;28;20033;-60
2023/04/14 00:34:39;;;;;;;9.07;3.30;;;5.50;99.90;;;;;;5008369;28;20080;-58
2023/04/14 00:37:05;;;;;;;12.15;2.80;;;5.50;99.90;;;;;;5006146;28;20057;-59
2023/04/14 00:39:30;;;;;;;13.35;4.07;;;5.50;99.90;;;;;;5006841;28;20046;-57
2023/04/14 00:41:56;;;;;;;10.43;3.35;;;5.50;99.90;;;;;;5005544;28;20050;-60
2023/04/14 00:44:24;;;;;;;9.25;2.90;;;5.50;99.90;;;;;;5006869;28;20417;-60
2023/04/14 00:46:50;;;;;;;10.32;2.90;;;5.40;99.90;;;;;;4990609;28;20172;-60
2023/04/14 00:49:16;;;;;;;14.07;2.45;;;5.40;99.90;;;;;;5007117;28;20046;-57
2023/04/14 00:51:44;;;;;;;7.28;2.67;;;5.40;99.90;;;;;;5006865;28;20041;-58
2023/04/14 00:54:11;;;;;;;9.15;3.03;;;5.40;99.90;;;;;;5007513;28;20045;-60
2023/04/14 00:56:37;;;;;;;14.30;3.65;;;5.30;99.90;;;;;;5006970;28;20049;-59
2023/04/14 00:59:06;;;;;;;11.75;3.50;;;5.30;99.90;;;;;;5004794;28;20042;-59
2023/04/14 01:01:36;;;;;;;10.13;2.97;;;5.30;99.90;;;;;;5000947;28;20542;-59
2023/04/14 01:04:02;;;;;;;15.45;2.95;;;5.30;99.90;;;;;;5004375;28;20067;-60
2023/04/14 01:06:28;;;;;;;12.65;3.08;;;5.40;99.90;;;;;;5009281;28;20034;-59
2023/04/14 01:08:55;;;;;;;9.63;3.00;;;5.30;99.90;;;;;;5001415;28;20046;-59
2023/04/14 01:11:36;;;;;;;11.40;3.00;;;5.30;99.90;;;;;;5005638;28;20055;-58
2023/04/14 01:14:31;;;;;;;9.52;3.15;;;5.30;99.90;;;;;;5008268;28;20068;-60
2023/04/14 01:17:10;;;;;;;12.23;2.78;;;5.30;99.90;;;;;;4983895;28;20053;-59
2023/04/14 01:20:03;;;;;;;13.60;3.40;;;5.30;99.90;;;;;;5004170;28;20049;-58
2023/04/14 01:22:30;;;;;;;12.30;3.83;;;5.30;99.90;;;;;;5004149;28;20104;-59
2023/04/14 01:25:05;;;;;;;8.82;3.42;;;5.30;99.90;;;;;;5005563;28;20037;-58
2023/04/14 01:27:53;;;;;;;17.98;4.10;;;5.30;99.90;;;;;;5001730;28;20447;-60
2023/04/14 01:30:34;;;;;;;12.95;3.03;;;5.30;99.90;;;;;;5003228;28;20040;-58
2023/04/14 01:33:04;;;;;;;10.45;3.00;;;5.30;99.90;;;;;;5005704;28;20038;-59
2023/04/14 01:35:38;;;;;;;10.93;3.10;;;5.30;99.90;;;;;;4986288;28;20049;-59
2023/04/14 01:38:09;;;;;;;9.38;2.70;;;5.30;99.90;;;;;;5012955;28;20477;-60
2023/04/14 01:40:37;;;;;;;9.95;2.50;;;5.30;99.90;;;;;;4992537;28;20064;-59
2023/04/14 01:43:10;;;;;;;11.57;3.10;;;5.20;99.90;;;;;;5008274;28;20817;-58
2023/04/14 01:45:40;;;;;;;12.35;3.28;;;5.20;99.90;;;;;;5012113;28;20034;-60
2023/04/14 01:48:07;;;;;;;10.52;2.95;;;5.30;99.90;;;;;;5009902;28;20096;-60
2023/04/14 01:50:35;;;;;;;9.57;2.40;;;5.20;99.90;;;;;;5013422;28;20084;-58
2023/04/14 01:53:05;;;;;;;10.20;2.83;;;5.20;99.90;;;;;;5011954;28;20405;-59
2023/04/14 01:55:33;;;;;;;14.18;3.15;;;5.20;99.90;;;;;;5013577;28;20045;-59
2023/04/14 01:58:00;;;;;;;15.82;3.20;;;5.20;99.90;;;;;;5013326;28;20038;-59
2023/04/14 02:00:26;;;;;;;9.73;2.40;;;5.20;99.90;;;;;;5011756;28;20107;-59
2023/04/14 02:02:53;;;;;;;11.65;2.65;;;5.20;99.90;;;;;;5012822;28;20107;-59
2023/04/14 02:05:21;;;;;;;12.05;2.75;;;5.20;99.90;;;;;;5013100;28;20034;-59
2023/04/14 02:07:50;;;;;;;15.55;3.10;;;5.20;99.90;;;;;;5014175;28;20156;-58
2023/04/14 02:10:19;;;;;;;11.23;2.38;;;5.10;99.90;;;;;;5011967;28;20072;-59
2023/04/14 02:12:47;;;;;;;12.30;2.65;;;5.10;99.90;;;;;;5004914;28;20038;-57
2023/04/14 02:15:17;;;;;;;11.15;2.58;;;5.10;99.90;;;;;;5012241;28;20172;-60
2023/04/14 02:17:47;;;;;;;14.13;3.22;;;5.10;99.90;;;;;;5010961;28;20050;-59
2023/04/14 02:20:13;;;;;;;16.40;4.70;;;5.10;99.90;;;;;;5013808;28;20053;-58
2023/04/14 02:22:39;;;;;;;8.93;2.65;;;5.00;99.90;;;;;;5013720;28;20136;-60
2023/04/14 02:25:06;;;;;;;10.52;3.17;;;5.00;99.90;;;;;;5008278;28;20463;-58
2023/04/14 02:27:57;;;;;;;13.98;2.88;;;5.00;99.90;;;;;;5007476;28;20080;-59
2023/04/14 02:30:53;;;;;;;10.85;3.10;;;5.00;99.90;;;;;;5005108;28;20045;-60
2023/04/14 02:33:23;;;;;;;11.93;2.50;;;5.00;99.90;;;;;;4986342;28;20066;-59
2023/04/14 02:36:15;;;;;;;12.88;3.10;;;4.90;99.90;;;;;;5012641;28;20044;-60
2023/04/14 02:38:58;;;;;;;10.27;2.42;;;5.00;99.90;;;;;;5008143;28;20169;-60
2023/04/14 02:41:29;;;;;;;9.07;3.03;;;5.00;99.90;;;;;;5012608;28;20054;-60
2023/04/14 02:44:23;;;;;;;10.15;2.80;;;5.00;99.90;;;;;;5009766;28;20053;-59
2023/04/14 02:46:52;;;;;;;;;;;5.00;99.90;;;;;;5012792;28;20034;-60
2023/04/14 02:49:20;;;;;;;9.18;2.83;;;5.00;99.90;;;;;;5007743;28;20000;-59
2023/04/14 02:51:47;;;;;;;10.50;2.85;;;5.00;99.90;;;;;;5009197;28;20052;-60
2023/04/14 02:54:14;;;;;;;8.45;2.58;;;5.00;99.90;;;;;;5002892;28;20030;-59
2023/04/14 02:56:40;;;;;;;8.55;2.80;;;5.00;99.90;;;;;;5005813;28;20049;-60
2023/04/14 02:59:06;;;;;;;9.82;2.75;;;5.00;99.90;;;;;;5008029;28;20406;-56
2023/04/14 03:01:33;;;;;;;13.07;3.63;;;5.00;99.90;;;;;;5008817;28;20076;-59
2023/04/14 03:04:00;;;;;;;10.60;3.35;;;5.00;99.90;;;;;;5008525;28;20657;-59
2023/04/14 03:06:27;;;;;;;13.60;3.10;;;5.00;99.90;;;;;;5007304;28;20053;-60
2023/04/14 03:08:54;;;;;;;10.15;3.53;;;5.00;99.90;;;;;;5007708;28;20046;-58
2023/04/14 03:11:21;;;;;;;12.95;2.92;;;5.00;99.90;;;;;;5006566;28;20046;-58
2023/04/14 03:13:53;;;;;;;8.07;2.53;;;5.00;99.90;;;;;;5009983;28;20334;-59
2023/04/14 03:16:24;;;;;;;13.57;2.75;;;5.00;99.90;;;;;;5006263;28;20113;-59
2023/04/14 03:18:53;;;;;;;10.02;2.78;;;5.00;99.90;;;;;;4990305;28;20100;-58
2023/04/14 03:21:20;;;;;;;9.45;2.80;;;5.00;99.90;;;;;;5024904;28;20061;-60
2023/04/14 03:23:47;;;;;;;14.10;3.00;;;5.00;99.90;;;;;;4992129;28;20046;-58
2023/04/14 03:26:17;;;;;;;17.75;4.18;;;5.10;99.90;;;;;;4993886;28;20034;-59
2023/04/14 03:28:46;;;;;;;9.80;2.90;;;5.10;99.90;;;;;;5006611;28;20179;-60
2023/04/14 03:31:15;;;;;;;13.45;3.03;;;5.10;99.90;;;;;;5008960;28;20038;-59
2023/04/14 03:33:43;;;;;;;13.25;4.15;;;5.10;99.90;;;;;;5004085;28;20049;-59
2023/04/14 03:36:11;;;;;;;7.53;2.60;;;5.10;99.90;;;;;;4996737;28;20076;-58
2023/04/14 03:38:38;;;;;;;9.65;2.75;;;5.10;99.90;;;;;;5005285;28;20065;-59
2023/04/14 03:41:06;;;;;;;10.55;2.88;;;5.00;99.90;;;;;;4989195;28;20565;-60
2023/04/14 03:43:36;;;;;;;10.23;2.75;;;5.00;99.90;;;;;;5007366;28;20038;-60
2023/04/14 03:46:04;;;;;;;11.15;3.33;;;5.00;99.90;;;;;;5009627;28;20045;-60
2023/04/14 03:48:37;;;;;;;10.13;3.25;;;5.00;99.90;;;;;;5005445;28;20097;-59
2023/04/14 03:51:05;;;;;;;16.63;3.22;;;5.00;99.90;;;;;;5008424;28;20033;-58
2023/04/14 03:53:33;;;;;;;10.25;2.83;;;5.00;99.90;;;;;;4989164;28;20117;-60
2023/04/14 03:56:00;;;;;;;6.43;2.83;;;5.00;99.90;;;;;;4988076;28;20897;-59
2023/04/14 03:58:28;;;;;;;9.77;2.70;;;4.90;99.90;;;;;;5004314;28;20034;-60
2023/04/14 04:00:55;;;;;;;8.65;2.92;;;4.90;99.90;;;;;;5004651;28;20123;-59
2023/04/14 04:03:22;;;;;;;10.93;3.30;;;4.90;99.90;;;;;;5005887;28;20053;-60
2023/04/14 04:05:49;;;;;;;8.25;2.97;;;4.90;99.90;;;;;;5009669;28;20682;-59
2023/04/14 04:08:15;;;;;;;9.48;2.85;;;4.90;99.90;;;;;;4990882;28;20056;-60
2023/04/14 04:10:42;;;;;;;5.82;2.38;;;4.90;99.90;;;;;;5004066;28;20078;-58
2023/04/14 04:13:14;;;;;;;16.48;4.45;;;4.90;99.90;;;;;;5005881;28;20045;-59
2023/04/14 04:15:41;;;;;;;11.15;3.42;;;4.90;99.90;;;;;;5008305;28;20121;-59
2023/04/14 04:18:07;;;;;;;8.85;3.05;;;4.90;99.90;;;;;;5007721;28;20377;-60
2023/04/14 04:20:38;;;;;;;9.13;3.03;;;5.50;99.90;;;;;;5005455;28;20037;-59
2023/04/14 04:23:06;;;;;;;7.80;2.67;;;4.80;99.90;;;;;;5008981;28;20064;-60
2023/04/14 04:25:35;;;;;;;8.90;2.83;;;4.80;99.90;;;;;;5004989;28;20070;-60
2023/04/14 04:28:01;;;;;;;7.65;2.75;;;4.80;99.90;;;;;;5008392;28;20033;-60
2023/04/14 04:30:29;;;;;;;8.20;2.83;;;4.80;99.90;;;;;;5022230;28;22123;-59
2023/04/14 04:32:55;;;;;;;14.45;4.63;;;4.80;99.90;;;;;;5002845;28;20070;-58
2023/04/14 04:35:23;;;;;;;8.43;3.42;;;4.80;99.90;;;;;;4987724;28;20045;-60
2023/04/14 04:37:50;;;;;;;10.30;3.35;;;4.80;99.90;;;;;;5008299;28;20033;-60
2023/04/14 04:40:16;;;;;;;9.50;3.08;;;4.80;99.90;;;;;;5004117;28;20049;-60
2023/04/14 04:42:42;;;;;;;12.90;3.67;;;4.80;99.90;;;;;;4995197;28;20121;-58
2023/04/14 04:45:09;;;;;;;9.18;3.30;;;4.80;99.90;;;;;;5002263;28;20112;-58
2023/04/14 04:47:35;;;;;;;9.65;3.13;;;4.80;99.90;;;;;;4990248;28;20037;-58
2023/04/14 04:50:00;;;;;;;8.13;3.00;;;4.80;99.90;;;;;;5003217;28;20038;-57
2023/04/14 04:52:26;;;;;;;10.90;3.55;;;4.80;99.90;;;;;;5006846;28;20045;-57
2023/04/14 04:54:52;;;;;;;10.18;3.33;;;4.80;99.90;;;;;;5006380;28;20042;-56
2023/04/14 04:57:18;;;;;;;8.52;3.05;;;4.80;99.90;;;;;;5007419;28;20038;-58
2023/04/14 04:59:44;;;;;;;10.00;3.78;;;4.70;99.90;;;;;;5006294;28;20049;-58
2023/04/14 05:02:09;;;;;;;8.70;2.67;;;4.70;99.90;;;;;;5006694;28;20053;-58
2023/04/14 05:04:35;;;;;;;11.02;2.83;;;4.70;99.90;;;;;;5003269;28;20104;-58
2023/04/14 05:07:02;;;;;;;11.45;3.85;;;4.70;99.90;;;;;;4972029;28;20382;-58
2023/04/14 05:09:28;;;;;;;10.93;3.75;;;4.70;99.90;;;;;;5005515;28;20373;-58
2023/04/14 05:11:53;;;;;;;13.50;3.40;;;4.70;99.90;;;;;;5002564;28;20752;-58
2023/04/14 05:14:19;;;;;;;9.55;3.42;;;4.70;99.90;;;;;;5005279;28;20050;-57
2023/04/14 05:16:46;;;;;;;9.98;3.17;;;4.70;99.90;;;;;;5003268;28;20558;-58
2023/04/14 05:19:12;;;;;;;9.82;3.38;;;4.70;99.90;;;;;;5003253;28;20045;-58
2023/04/14 05:21:38;;;;;;;9.50;2.92;;;4.70;99.90;;;;;;4999063;28;20045;-58
2023/04/14 05:24:04;;;;;;;13.93;4.18;;;4.80;99.90;;;;;;5005797;28;20044;-58
2023/04/14 05:26:30;;;;;;;8.00;3.20;;;4.20;99.90;;;;;;4998995;28;20076;-58
2023/04/14 05:28:55;;;;;;;14.95;3.10;;;4.80;99.90;;;;;;5002251;28;20080;-57
2023/04/14 05:31:21;;;;;;;7.60;2.88;;;4.80;99.90;;;;;;4997052;28;20046;-58
2023/04/14 05:33:47;;;;;;;10.15;3.53;;;4.80;99.90;;;;;;5003376;28;20439;-58
2023/04/14 05:36:13;;;;;;;8.95;3.00;;;4.80;99.90;;;;;;5005323;28;20044;-58
2023/04/14 05:38:39;;;;;;;13.38;3.70;;;4.90;99.90;;;;;;5007963;28;20034;-58
2023/04/14 05:41:05;;;;;;;9.73;3.53;;;4.90;99.90;;;;;;5008077;28;20041;-57
2023/04/14 05:43:31;;;;;;;7.35;3.50;;;5.00;99.90;;;;;;4998763;28;20535;-58
2023/04/14 05:45:57;;;;;;;8.23;3.33;;;5.00;99.90;;;;;;5001041;28;20037;-58
2023/04/14 05:48:26;;;;;;;10.18;3.25;;;5.10;99.90;;;;;;4999888;28;20045;-58
2023/04/14 05:50:52;;;;;;;9.85;3.10;;;5.20;99.90;;;;;;5001688;28;20397;-58
2023/04/14 05:53:17;;;;;;;7.90;3.47;;;5.20;99.90;;;;;;4997559;28;20041;-55
2023/04/14 05:55:44;;;;;;;11.68;3.65;;;5.30;99.90;;;;;;4999314;28;20050;-57
2023/04/14 05:58:11;;;;;;;9.40;3.15;;;5.40;99.90;;;;;;4981742;28;20164;-57
2023/04/14 06:00:37;;;;;;;9.45;3.88;;;5.40;99.90;;;;;;5002143;28;20091;-58
2023/04/14 06:03:02;;;;;;;8.90;3.28;;;5.50;99.90;;;;;;4998623;28;20093;-58
2023/04/14 06:05:28;;;;;;;9.00;3.50;;;5.60;99.90;;;;;;4984229;28;20052;-58
2023/04/14 06:07:54;;;;;;;10.27;3.58;;;5.60;99.90;;;;;;4998676;28;20070;-58
2023/04/14 06:10:20;;;;;;;6.55;2.47;;;5.70;99.90;;;;;;4995904;28;20088;-58
2023/04/14 06:12:45;;;;;;;9.10;3.47;;;5.80;99.90;;;;;;4994544;28;20050;-57
2023/04/14 06:15:11;;;;;;;10.82;3.15;;;5.90;99.90;;;;;;4999041;28;20072;-58
2023/04/14 06:17:38;;;;;;;9.35;3.20;;;6.00;99.90;;;;;;5004838;28;20113;-58
2023/04/14 06:20:05;;;;;;;8.05;3.75;;;6.00;99.90;;;;;;5004336;28;20053;-58
2023/04/14 06:22:31;;;;;;;10.30;3.80;;;6.10;99.90;;;;;;5004955;28;20057;-58
2023/04/14 06:24:57;;;;;;;10.13;3.33;;;6.20;99.90;;;;;;5005476;28;20487;-58
2023/04/14 06:27:26;;;;;;;10.50;3.45;;;6.30;99.90;;;;;;4998821;28;20046;-58
2023/04/14 06:29:52;;;;;;;9.38;3.97;;;6.30;99.90;;;;;;5001062;28;20039;-58
2023/04/14 06:32:18;;;;;;;7.20;3.30;;;6.40;99.90;;;;;;5006094;28;20038;-58
2023/04/14 06:34:46;;;;;;;10.27;3.55;;;6.40;99.90;;;;;;4987831;28;20033;-58
2023/04/14 06:37:12;;;;;;;10.68;3.30;;;6.50;99.90;;;;;;5006367;28;20112;-58
2023/04/14 06:39:38;;;;;;;11.38;4.70;;;6.70;99.90;;;;;;5009781;28;20026;-58
2023/04/14 06:42:04;;;;;;;13.20;4.45;;;6.70;99.90;;;;;;5003494;28;20042;-58
2023/04/14 06:44:29;;;;;;;14.32;4.40;;;6.80;99.90;;;;;;4999876;28;20949;-58
2023/04/14 06:46:55;;;;;;;12.38;3.67;;;6.80;99.90;;;;;;5002817;28;20046;-56
2023/04/14 06:49:22;;;;;;;9.73;3.92;;;6.90;99.90;;;;;;4986443;28;20511;-58
2023/04/14 06:51:48;;;;;;;14.65;4.65;;;7.00;99.90;;;;;;5008907;28;20064;-57
2023/04/14 06:54:14;;;;;;;9.35;4.13;;;7.10;99.90;;;;;;5009419;28;20038;-57
2023/04/14 06:56:39;;;;;;;11.65;4.50;;;7.30;99.90;;;;;;4994434;28;20077;-58
2023/04/14 06:59:05;;;;;;;18.05;4.80;;;7.40;99.90;;;;;;4985157;28;20109;-57
2023/04/14 07:01:31;;;;;;;10.27;4.68;;;7.40;99.90;;;;;;4987859;28;20045;-58
2023/04/14 07:03:56;;;;;;;12.82;4.13;;;7.60;99.90;;;;;;5005500;28;20038;-59
2023/04/14 07:06:23;;;;;;;14.05;4.53;;;7.70;99.90;;;;;;5008011;28;20588;-58
2023/04/14 07:08:49;;;;;;;13.18;4.10;;;7.80;99.90;;;;;;5005331;28;20493;-58
2023/04/14 07:11:14;;;;;;;10.52;4.13;;;7.90;99.90;;;;;;5006174;28;20092;-59
2023/04/14 07:13:40;;;;;;;11.77;4.10;;;8.10;99.90;;;;;;5001600;28;20042;-59
2023/04/14 07:16:06;;;;;;;7.93;4.05;;;8.20;99.90;;;;;;4992497;28;20048;-58
2023/04/14 07:18:33;;;;;;;10.57;3.90;;;8.40;99.90;;;;;;5003186;28;20144;-58
2023/04/14 07:20:59;;;;;;;11.45;3.70;;;8.50;99.90;;;;;;5002563;28;20034;-58
2023/04/14 07:23:25;;;;;;;13.07;3.97;;;8.70;99.90;;;;;;5003944;28;20042;-59
2023/04/14 07:25:52;;;;;;;14.48;4.20;;;8.80;99.90;;;;;;5006432;28;20108;-58
2023/04/14 07:28:21;;;;;;;9.52;3.72;;;8.90;99.90;;;;;;5005609;28;20117;-59
2023/04/14 07:30:48;;;;;;;9.88;3.92;;;9.00;99.90;;;;;;5011003;28;20046;-59
2023/04/14 07:33:17;;;;;;;13.35;3.90;;;9.20;99.90;;;;;;5004714;28;20041;-58
2023/04/14 07:35:44;;;;;;;10.60;4.00;;;9.30;99.90;;;;;;5001503;28;20054;-57
2023/04/14 07:38:09;;;;;;;11.30;3.53;;;9.40;99.90;;;;;;5001576;28;20041;-59
2023/04/14 07:40:35;;;;;;;9.23;3.72;;;9.50;99.90;;;;;;5005491;28;20060;-58
2023/04/14 07:43:01;;;;;;;8.73;3.20;;;9.60;99.90;;;;;;4995442;28;20057;-59
2023/04/14 07:45:27;;;;;;;9.20;3.33;;;10.20;99.90;;;;;;4971039;28;20108;-59
2023/04/14 07:47:52;;;;;;;10.63;3.70;;;9.80;99.90;;;;;;5003815;28;20646;-59
2023/04/14 07:50:18;;;;;;;8.32;3.65;;;9.90;99.90;;;;;;5005700;28;20060;-58
2023/04/14 07:52:44;;;;;;;12.35;2.85;;;10.00;99.90;;;;;;4985450;28;20567;-58
2023/04/14 07:55:09;;;;;;;10.25;3.08;;;10.00;99.90;;;;;;5004530;28;20092;-58
2023/04/14 07:57:35;;;;;;;7.53;3.33;;;10.10;99.90;;;;;;5006710;28;20553;-58
2023/04/14 08:00:01;;;;;;;11.50;3.92;;;10.20;99.90;;;;;;5002900;28;20042;-58
2023/04/14 08:02:27;;;;;;;9.15;3.03;;;10.40;99.90;;;;;;5003364;28;20120;-58
2023/04/14 08:04:52;;;;;;;7.63;2.83;;;10.50;99.90;;;;;;4999230;28;20117;-58
2023/04/14 08:07:18;;;;;;;10.65;2.85;;;10.60;99.90;;;;;;5004801;28;20420;-58
2023/04/14 08:09:45;;;;;;;8.60;2.17;;;10.70;99.90;;;;;;4999885;28;20050;-58
2023/04/14 08:12:10;;;;;;;8.07;3.42;;;10.80;99.90;;;;;;4982816;28;20037;-59
2023/04/14 08:14:37;;;;;;;10.75;2.67;;;10.90;99.90;;;;;;5006146;28;20659;-59
2023/04/14 08:17:03;;;;;;;10.82;2.88;;;10.90;99.90;;;;;;5000371;28;20073;-58
2023/04/14 08:19:30;;;;;;;8.77;2.58;;;11.00;99.90;;;;;;5001286;28;20077;-58
2023/04/14 08:21:56;;;;;;;7.95;2.35;;;11.10;99.90;;;;;;4998604;28;20045;-58
2023/04/14 08:24:22;;;;;;;9.23;2.58;;;11.10;99.90;;;;;;5000056;28;20519;-58
2023/04/14 08:26:47;;;;;;;11.00;3.10;;;11.20;99.90;;;;;;5004833;28;20682;-58
2023/04/14 08:29:13;;;;;;;10.13;2.90;;;11.20;99.90;;;;;;5002758;28;20096;-58
2023/04/14 08:31:39;;;;;;;9.35;2.90;;;11.30;99.90;;;;;;4998464;28;20034;-58
2023/04/14 08:34:05;;;;;;;10.75;3.20;;;11.40;99.90;;;;;;5006490;28;20038;-60
2023/04/14 08:36:31;;;;;;;15.18;3.15;;;11.60;99.90;;;;;;4997091;28;20049;-59
2023/04/14 08:38:58;;;;;;;10.20;2.58;;;11.60;99.90;;;;;;5003882;28;20046;-58
2023/04/14 08:41:25;;;;;;;8.30;2.92;;;11.70;99.90;;;;;;5005498;28;20041;-58
2023/04/14 08:43:51;;;;;;;10.88;3.08;;;11.80;99.90;;;;;;4995349;28;20072;-58
2023/04/14 08:46:18;;;;;;;9.25;2.72;;;11.80;99.90;;;;;;5007292;28;20035;-57
2023/04/14 08:48:48;;;;;;;9.60;3.00;;;11.90;99.90;;;;;;5006871;28;20493;-59
2023/04/14 08:51:44;;;;;;;11.57;2.83;;;12.10;99.90;;;;;;5009468;28;20485;-59
2023/04/14 08:54:11;;;;;;;9.55;2.80;;;12.10;99.90;;;;;;5001172;28;20112;-58
2023/04/14 08:56:38;;;;;;;9.00;2.47;;;12.10;99.90;;;;;;5008658;28;20665;-58
2023/04/14 08:59:09;;;;;;;10.73;3.08;;;12.20;99.90;;;;;;5005281;28;20096;-57
2023/04/14 09:01:36;;;;;;;7.65;2.30;;;12.30;99.90;;;;;;5004082;28;20505;-57
2023/04/14 09:04:03;;;;;;;11.27;3.22;;;12.30;99.90;;;;;;5003670;28;20034;-57
2023/04/14 09:06:29;;;;;;;7.80;2.83;;;12.40;99.90;;;;;;5008270;28;20037;-58
2023/04/14 09:08:55;;;;;;;8.25;2.80;;;12.50;99.90;;;;;;5006014;28;20076;-59
2023/04/14 09:11:22;;;;;;;10.82;2.70;;;12.60;99.90;;;;;;5003481;28;20070;-57
2023/04/14 09:13:49;;;;;;;11.80;2.80;;;12.70;99.90;;;;;;4996985;28;20057;-58
2023/04/14 09:16:16;;;;;;;12.38;2.92;;;12.80;99.90;;;;;;5005140;28;20086;-56
2023/04/14 09:18:42;;;;;;;10.75;3.55;;;12.90;99.90;;;;;;4986427;28;20046;-57
2023/04/14 09:21:09;;;;;;;10.63;2.60;;;13.00;99.90;;;;;;5001506;28;20512;-57
2023/04/14 09:23:36;;;;;;;7.88;2.40;;;13.00;99.90;;;;;;5003608;28;20046;-58
2023/04/14 09:26:07;;;;;;;8.75;1.92;;;13.10;99.90;;;;;;5000060;28;20065;-57
2023/04/14 09:28:34;;;;;;;11.35;2.70;;;13.20;99.90;;;;;;4994773;28;20052;-58
2023/04/14 09:31:01;;;;;;;8.88;2.63;;;13.30;99.90;;;;;;5000816;28;20136;-56
2023/04/14 09:33:27;;;;;;;8.90;3.05;;;13.30;99.90;;;;;;5000416;28;20042;-57
2023/04/14 09:35:53;;;;;;;9.68;2.80;;;13.40;99.90;;;;;;5001094;28;20038;-56
2023/04/14 09:38:38;;;;;;;11.98;2.42;;;13.50;99.90;;;;;;4995085;28;20429;-58
2023/04/14 09:41:07;;;;;;;7.95;2.67;;;13.60;99.90;;;;;;5003309;28;20478;-58
2023/04/14 09:43:35;;;;;;;7.50;2.38;;;13.70;99.60;;;;;;4997107;28;20113;-56
2023/04/14 09:46:08;;;;;;;7.65;2.28;;;13.70;99.50;;;;;;5003969;28;20042;-58
2023/04/14 09:48:36;;;;;;;10.43;2.95;;;13.80;99.30;;;;;;4989366;28;20053;-58
2023/04/14 09:51:08;;;;;;;7.80;2.22;;;13.90;99.30;;;;;;4999947;28;20093;-56
2023/04/14 09:53:41;;;;;;;6.97;1.95;;;14.00;99.20;;;;;;4997168;28;20053;-55
2023/04/14 09:56:09;;;;;;;6.45;2.47;;;14.10;99.10;;;;;;5001157;28;20044;-60
2023/04/14 09:58:37;;;;;;;9.07;2.40;;;14.10;98.70;;;;;;5003846;28;20099;-59
2023/04/14 10:01:04;;;;;;;4.50;1.80;;;14.20;98.60;;;;;;5001900;28;20451;-58
2023/04/14 10:03:46;;;;;;;6.18;2.08;;;14.30;97.60;;;;;;4993089;28;20141;-56
2023/04/14 10:06:13;;;;;;;5.75;1.60;;;14.40;97.10;;;;;;5002460;28;20116;-57
2023/04/14 10:08:40;;;;;;;10.93;2.47;;;14.30;97.50;;;;;;5001701;28;20073;-58
2023/04/14 10:11:26;;;;;;;8.43;2.10;;;14.10;97.40;;;;;;5003061;28;20157;-58
2023/04/14 10:13:56;;;;;;;6.40;1.65;;;13.90;97.70;;;;;;5005123;28;20527;-58
2023/04/14 10:16:23;;;;;;;6.13;1.70;;;13.90;98.00;;;;;;5001131;28;20070;-58
2023/04/14 10:18:49;;;;;;;6.30;1.95;;;14.10;98.00;;;;;;5000319;28;20092;-58
2023/04/14 10:21:16;;;;;;;6.35;2.38;;;14.20;97.90;;;;;;5003838;28;20499;-58
2023/04/14 10:23:43;;;;;;;6.38;2.10;;;14.30;97.20;;;;;;5000297;28;20457;-58
2023/04/14 10:26:10;;;;;;;6.97;1.50;;;14.50;97.60;;;;;;4994877;28;20034;-58
2023/04/14 10:28:45;;;;;;;5.05;1.50;;;14.70;96.40;;;;;;5007091;28;20429;-58
2023/04/14 10:31:30;;;;;;;8.73;2.10;;;14.90;95.70;;;;;;5006260;28;20042;-58
2023/04/14 10:33:56;;;;;;;4.18;1.40;;;15.00;96.00;;;;;;5008037;28;20034;-58
2023/04/14 10:36:27;;;;;;;5.18;1.60;;;15.10;96.10;;;;;;5000650;28;20041;-57
2023/04/14 10:38:59;;;;;;;6.20;1.73;;;15.00;95.30;;;;;;4995772;28;20033;-57
2023/04/14 10:41:25;;;;;;;7.70;1.90;;;14.90;95.00;;;;;;5003091;28;20541;-58
2023/04/14 10:43:50;;;;;;;6.13;2.05;;;14.90;95.50;;;;;;5002550;28;20105;-57
2023/04/14 10:46:16;;;;;;;5.70;1.88;;;14.90;95.00;;;;;;5001354;28;20041;-58
2023/04/14 10:48:48;;;;;;;4.63;1.45;;;14.90;95.10;;;;;;5001727;28;20060;-60
2023/04/14 10:51:16;;;;;;;4.05;1.40;;;15.00;94.90;;;;;;5005207;28;20057;-58
2023/04/14 10:53:49;;;;;;;5.95;1.85;;;15.10;94.90;;;;;;4998932;28;20120;-58
2023/04/14 10:56:14;;;;;;;8.38;2.28;;;14.90;94.00;;;;;;5002976;28;20042;-57
2023/04/14 10:58:52;;;;;;;7.18;1.52;;;15.00;95.10;;;;;;5017045;28;20045;-58
2023/04/14 11:01:30;;;;;;;6.13;1.58;;;15.10;95.20;;;;;;5015684;28;20042;-57
2023/04/14 11:04:09;;;;;;;6.80;1.50;;;15.10;94.40;;;;;;5002697;28;20061;-58
2023/04/14 11:06:52;;;;;;;7.40;2.00;;;15.20;94.70;;;;;;5000202;28;20056;-56
2023/04/14 11:09:36;;;;;;;6.13;1.63;;;15.20;94.80;;;;;;5007047;28;20626;-57
2023/04/14 11:12:04;;;;;;;7.50;1.67;;;15.10;94.50;;;;;;4998973;28;20973;-57
2023/04/14 11:14:31;;;;;;;4.95;2.15;;;15.10;94.40;;;;;;5004139;28;20065;-58
2023/04/14 11:17:04;;;;;;;8.15;1.65;;;15.10;93.50;;;;;;5001703;28;20069;-58
2023/04/14 11:19:34;;;;;;;6.70;1.63;;;15.00;94.40;;;;;;5008505;28;20050;-58
2023/04/14 11:21:59;;;;;;;6.00;1.63;;;15.10;94.40;;;;;;5009989;28;20036;-56
2023/04/14 11:24:25;;;;;;;5.07;1.85;;;15.40;94.40;;;;;;5007562;28;20045;-56
2023/04/14 11:26:53;;;;;;;7.38;2.28;;;15.50;94.20;;;;;;5004995;28;20092;-56
2023/04/14 11:29:22;;;;;;;8.65;1.85;;;15.50;92.90;;;;;;4998413;28;20241;-57
2023/04/14 11:32:02;;;;;;;5.57;2.15;;;15.20;93.00;;;;;;5003402;28;20038;-57
2023/04/14 11:34:33;;;;;;;6.28;1.45;;;15.30;92.20;;;;;;5001578;28;20192;-57
2023/04/14 11:37:01;;;;;;;6.85;1.70;;;15.30;93.30;;;;;;4997121;28;20119;-57
2023/04/14 11:39:28;;;;;;;7.05;1.70;;;15.40;93.20;;;;;;5000152;28;20046;-59
2023/04/14 11:41:58;;;;;;;5.50;1.67;;;15.60;93.30;;;;;;5006530;28;20127;-58
2023/04/14 11:44:24;;;;;;;6.57;1.67;;;15.90;93.80;;;;;;4999343;28;20088;-58
2023/04/14 11:46:50;;;;;;;4.30;1.70;;;16.10;93.50;;;;;;4998459;28;20612;-58
2023/04/14 11:49:16;;;;;;;3.88;1.30;;;16.40;93.50;;;;;;5004387;28;20184;-60
2023/04/14 11:51:42;;;;;;;6.13;1.90;;;16.50;92.20;;;;;;5001449;28;20080;-59
2023/04/14 11:54:10;;;;;;;5.93;1.55;;;16.30;91.30;;;;;;4982808;28;20401;-58
2023/04/14 11:56:36;;;;;;;7.75;1.58;;;16.30;92.30;;;;;;4985795;28;20058;-59
2023/04/14 11:59:04;;;;;;;8.20;1.80;;;16.30;91.80;;;;;;5004063;28;20580;-59
2023/04/14 12:01:30;;;;;;;4.70;1.42;;;16.50;91.50;;;;;;5002069;28;20037;-57
2023/04/14 12:03:56;;;;;;;6.60;1.98;;;16.40;90.70;;;;;;5003035;28;20050;-59
2023/04/14 12:06:23;;;;;;;8.90;2.40;;;16.20;90.50;;;;;;5000670;28;20049;-59
2023/04/14 12:08:54;;;;;;;7.70;1.95;;;16.40;91.30;;;;;;5000069;28;20497;-60
2023/04/14 12:11:19;;;;;;;5.28;1.73;;;16.50;88.30;;;;;;5004783;28;20084;-57
2023/04/14 12:13:46;;;;;;;9.90;2.05;;;16.50;89.40;;;;;;5005285;28;20069;-58
2023/04/14 12:16:13;;;;;;;4.97;1.63;;;16.60;90.40;;;;;;5003665;28;20609;-59
2023/04/14 12:18:43;;;;;;;6.30;1.50;;;16.70;90.40;;;;;;4999034;28;20130;-56
2023/04/14 12:21:09;;;;;;;6.70;2.13;;;16.60;90.30;;;;;;4999758;28;20056;-57
2023/04/14 12:23:36;;;;;;;7.15;1.90;;;16.30;90.60;;;;;;5000908;28;20041;-57
2023/04/14 12:26:02;;;;;;;6.53;1.90;;;16.20;90.40;;;;;;4997661;28;20049;-57
2023/04/14 12:28:29;;;;;;;6.18;2.00;;;15.80;89.50;;;;;;4996435;28;20111;-58
2023/04/14 12:31:03;;;;;;;7.75;1.65;;;15.60;90.20;;;;;;5005134;28;20081;-58
2023/04/14 12:33:31;;;;;;;6.00;1.70;;;15.80;91.00;;;;;;4996734;28;20038;-59
2023/04/14 12:36:09;;;;;;;4.93;1.67;;;16.00;91.30;;;;;;4981174;28;20152;-57
2023/04/14 12:38:34;;;;;;;7.20;1.83;;;16.30;90.80;;;;;;4998970;28;20033;-58
2023/04/14 12:41:04;;;;;;;6.30;1.65;;;16.20;90.00;;;;;;5002315;28;20058;-59
2023/04/14 12:43:32;;;;;;;7.88;2.08;;;16.30;89.70;;;;;;4993233;28;20069;-66
2023/04/14 12:45:58;;;;;;;6.05;1.55;;;16.50;89.20;;;;;;5005393;28;20093;-57
2023/04/14 12:48:57;;;;;;;5.47;1.60;;;16.60;86.50;;;;;;5001292;28;20054;-58
2023/04/14 12:51:23;;;;;;;6.82;1.90;;;16.50;87.80;;;;;;4989303;28;20057;-56
2023/04/14 12:53:49;;;;;;;9.70;1.73;;;16.60;89.60;;;;;;5004257;28;20440;-56